Gandsi, Mississippi
Current Conditions -  °F | °C
As of 9:55 AM on Friday 24 Oct 2014 (Local Time) from KPIB Reporting Station
Clear Clear  
Wind Chill: 61°   Ceiling: Unl
Heat Index: 61°   Visibility: 10mi
Dew Point: 48°   Wind: 6mph
Humidity: 63%   Direction: 350°N
Pressure: 30.15"   Gusts: NA
Location:  31.5166°N, 89.4877°W
Report Text: KPIB 241455Z AUTO 35005KT 10SM CLR 16/09 A3015 RMK AO1 52014
Loading
Personal Weather Stations






























Interactive Weather Map New forecast layout! Learn more

10-Day Weather Forecast

Advertisements
Track Severe Weather on mobile